首页
METAR-TAF:

METAR-TAF

机场 :

Audubon County Airport

Audubon, 艾奥瓦州, 美国

纬度: 41-42-04N, 经度: 094-55-13W, 海拔: 392米

当前天气观测

该预报发布于38分钟前的05:35 UTC
风速10节,风向南转西南,有时为15节阵风
温度 29°C
湿度 66%
气压 1006 hPa
能見度: 16.1公里
散云层高于4400英尺
散云层高于6000英尺
多云层高于7000英尺

METAR: KADU 250535Z AUTO 20010G15KT 10SM SCT044 SCT060 BKN070 29/22 A2970 RMK AO2

时间: 01:13 (06:13 UTC)


TAF: 丢失

超过4000个机场的气象观测和天气预报(METAR&TAF报告)。

可查询的气象台以黄色和红色小点在地图上表示。

将鼠标移到小点上方,可查看气象台名称。

然后点击查看天气观测和预报。

如需切换地图:点击带黑十字的绿色按钮放大地图;点击带横线的绿色按钮缩小地图;或者点击绿色箭头查看邻近地区的地图。


METAR-TAF: